createdAt,value
2023-03-26T00:01:19.250Z,11.53
2023-03-26T00:03:47.089Z,12.57
2023-03-26T00:06:16.697Z,21.85
2023-03-26T00:08:45.792Z,10.73
2023-03-26T00:11:15.530Z,15.95
2023-03-26T00:13:43.891Z,12.60
2023-03-26T00:16:16.434Z,13.75
2023-03-26T00:18:43.652Z,19.05
2023-03-26T00:21:16.052Z,16.38
2023-03-26T00:23:43.687Z,18.70
2023-03-26T00:26:11.133Z,12.77
2023-03-26T00:28:40.563Z,14.60
2023-03-26T00:31:10.754Z,17.85
2023-03-26T00:33:38.564Z,7.97
2023-03-26T00:36:10.087Z,19.77
2023-03-26T00:38:39.092Z,15.37
2023-03-26T00:41:17.661Z,7.95
2023-03-26T00:43:49.269Z,8.45
2023-03-26T00:46:17.624Z,11.85
2023-03-26T00:48:46.152Z,14.77
2023-03-26T00:51:15.509Z,7.57
2023-03-26T00:53:44.250Z,9.82
2023-03-26T00:56:11.439Z,18.92
2023-03-26T00:58:38.146Z,9.85
2023-03-26T01:01:13.790Z,12.80
2023-03-26T01:03:45.755Z,16.90
2023-03-26T01:06:28.478Z,17.35
2023-03-26T01:09:00.067Z,11.57
2023-03-26T01:11:29.764Z,19.30
2023-03-26T01:14:00.988Z,15.35
2023-03-26T01:16:33.180Z,14.17
2023-03-26T01:19:00.469Z,12.23
2023-03-26T01:21:30.396Z,10.95
2023-03-26T01:23:59.927Z,14.32
2023-03-26T01:26:49.339Z,15.98
2023-03-26T01:29:36.055Z,31.40
2023-03-26T01:32:14.621Z,12.52
2023-03-26T01:34:51.829Z,15.65
2023-03-26T01:37:37.916Z,13.45
2023-03-26T01:40:13.105Z,12.98
2023-03-26T01:42:48.013Z,21.73
2023-03-26T01:45:23.741Z,9.85
2023-03-26T01:47:50.512Z,6.18
2023-03-26T01:50:17.251Z,23.60
2023-03-26T01:52:43.772Z,8.30
2023-03-26T01:55:11.754Z,11.37
2023-03-26T01:57:44.285Z,10.50
2023-03-26T02:00:18.044Z,6.35
2023-03-26T02:02:55.122Z,13.10
2023-03-26T02:05:43.999Z,11.63
2023-03-26T02:08:22.671Z,10.20
2023-03-26T02:10:54.918Z,11.73
2023-03-26T02:13:21.952Z,12.48
2023-03-26T02:16:00.112Z,15.52
2023-03-26T02:18:36.116Z,10.23
2023-03-26T02:21:10.918Z,11.17
2023-03-26T02:23:37.705Z,9.98
2023-03-26T02:26:09.233Z,17.52
2023-03-26T02:28:36.476Z,8.45
2023-03-26T02:31:03.497Z,10.73
2023-03-26T02:33:30.554Z,15.47
2023-03-26T02:36:02.411Z,12.15
2023-03-26T02:38:33.686Z,9.90
2023-03-26T02:41:00.583Z,8.48
2023-03-26T02:43:27.124Z,11.00
2023-03-26T02:45:53.978Z,7.40
2023-03-26T02:48:20.957Z,15.73
2023-03-26T02:50:50.182Z,11.80
2023-03-26T02:53:17.245Z,16.98
2023-03-26T02:55:43.728Z,18.13
2023-03-26T02:58:12.207Z,9.07
2023-03-26T03:00:38.705Z,17.70
2023-03-26T03:03:07.480Z,17.88
2023-03-26T03:05:34.310Z,16.20
2023-03-26T03:08:00.888Z,12.27
2023-03-26T03:10:28.655Z,8.07
2023-03-26T03:12:55.260Z,14.32
2023-03-26T03:15:21.688Z,11.98
2023-03-26T03:17:48.233Z,15.25
2023-03-26T03:20:15.404Z,16.50
2023-03-26T03:22:41.997Z,18.77
2023-03-26T03:25:14.169Z,19.65
2023-03-26T03:27:42.712Z,18.27
2023-03-26T03:30:10.998Z,18.83
2023-03-26T03:32:37.603Z,15.80
2023-03-26T03:35:04.633Z,20.07
2023-03-26T03:37:31.231Z,23.63
2023-03-26T03:39:57.729Z,24.98
2023-03-26T03:42:24.470Z,22.90
2023-03-26T03:44:51.401Z,26.73
2023-03-26T03:47:17.905Z,32.87
2023-03-26T03:49:44.305Z,21.70
2023-03-26T03:52:10.780Z,30.60
2023-03-26T03:54:37.694Z,20.08
2023-03-26T03:57:04.219Z,34.35
2023-03-26T03:59:30.657Z,26.97
2023-03-26T04:01:57.053Z,28.88
2023-03-26T04:04:24.645Z,26.35
2023-03-26T04:06:52.426Z,32.35
2023-03-26T04:09:19.457Z,26.42
2023-03-26T04:11:46.028Z,28.53
2023-03-26T04:14:12.457Z,40.58
2023-03-26T04:16:38.880Z,33.08
2023-03-26T04:19:05.290Z,34.72
2023-03-26T04:21:32.053Z,29.08
2023-03-26T04:23:58.572Z,23.40
2023-03-26T04:26:25.023Z,33.15
2023-03-26T04:28:55.172Z,33.10
2023-03-26T04:31:29.084Z,42.58
2023-03-26T04:34:01.435Z,23.98
2023-03-26T04:36:32.101Z,25.10
2023-03-26T04:39:02.885Z,26.60
2023-03-26T04:41:30.179Z,30.98
2023-03-26T04:43:56.825Z,33.63
2023-03-26T04:46:23.850Z,27.25
2023-03-26T04:48:54.574Z,33.77
2023-03-26T04:51:25.416Z,41.03
2023-03-26T04:53:54.243Z,28.65
2023-03-26T04:56:49.187Z,29.13
2023-03-26T04:59:20.190Z,26.33
2023-03-26T05:01:46.726Z,41.77
2023-03-26T05:04:13.786Z,33.05
2023-03-26T05:06:41.733Z,35.60
2023-03-26T05:09:10.675Z,29.80
2023-03-26T05:11:37.532Z,23.50
2023-03-26T05:14:05.937Z,21.83
2023-03-26T05:16:32.553Z,30.73
2023-03-26T05:18:59.434Z,31.90
2023-03-26T05:21:25.879Z,35.50
2023-03-26T05:23:52.760Z,33.63
2023-03-26T05:26:19.683Z,29.70
2023-03-26T05:28:46.235Z,25.65
2023-03-26T05:31:12.686Z,33.78
2023-03-26T05:33:39.232Z,27.23
2023-03-26T05:36:14.033Z,28.05
2023-03-26T05:38:40.971Z,30.40
2023-03-26T05:41:09.940Z,26.40
2023-03-26T05:43:36.696Z,29.55
2023-03-26T05:46:04.000Z,23.70
2023-03-26T05:48:30.746Z,28.02
2023-03-26T05:50:58.500Z,24.57
2023-03-26T05:53:27.040Z,36.58
2023-03-26T05:55:57.813Z,22.77
2023-03-26T05:58:33.144Z,29.85
2023-03-26T06:01:05.470Z,28.90
2023-03-26T06:03:37.867Z,25.63
2023-03-26T06:06:09.256Z,20.50
2023-03-26T06:08:36.193Z,23.30
2023-03-26T06:11:05.482Z,25.55
2023-03-26T06:13:31.907Z,31.98
2023-03-26T06:15:58.398Z,32.63
2023-03-26T06:18:26.036Z,25.88
2023-03-26T06:20:53.288Z,26.15
2023-03-26T06:23:20.041Z,25.75
2023-03-26T06:25:46.661Z,26.08
2023-03-26T06:28:13.556Z,27.20
2023-03-26T06:30:40.303Z,30.35
2023-03-26T06:33:07.024Z,21.02
2023-03-26T06:35:33.681Z,40.47
2023-03-26T06:38:00.688Z,33.45
2023-03-26T06:40:27.193Z,29.60
2023-03-26T06:43:07.562Z,33.33
2023-03-26T06:45:38.048Z,21.40
2023-03-26T06:48:05.347Z,28.55
2023-03-26T06:50:32.771Z,27.42
2023-03-26T06:52:59.353Z,25.57
2023-03-26T06:55:25.996Z,23.23
2023-03-26T06:57:54.424Z,19.88
2023-03-26T07:00:21.439Z,33.47
2023-03-26T07:02:47.908Z,28.63
2023-03-26T07:05:15.610Z,28.47
2023-03-26T07:07:46.817Z,31.50
2023-03-26T07:10:14.315Z,26.33
2023-03-26T07:12:42.380Z,27.23
2023-03-26T07:15:10.198Z,30.17
2023-03-26T07:17:37.041Z,32.50
2023-03-26T07:20:08.067Z,37.63
2023-03-26T07:22:35.328Z,37.28
2023-03-26T07:25:02.373Z,31.55
2023-03-26T07:27:36.196Z,30.30
2023-03-26T07:30:12.358Z,37.67
2023-03-26T07:33:03.579Z,40.90
2023-03-26T07:35:48.581Z,33.22
2023-03-26T07:38:40.290Z,26.77
2023-03-26T07:41:19.801Z,26.45
2023-03-26T07:44:04.589Z,30.60
2023-03-26T07:46:34.448Z,25.52
2023-03-26T07:49:01.820Z,27.00
2023-03-26T07:51:29.285Z,34.17
2023-03-26T07:53:57.600Z,33.03
2023-03-26T07:56:58.648Z,29.33
2023-03-26T07:59:51.530Z,31.83
2023-03-26T08:02:43.418Z,34.65
2023-03-26T08:05:21.581Z,32.65
2023-03-26T08:08:23.124Z,31.40
2023-03-26T08:11:09.345Z,28.40
2023-03-26T08:14:06.899Z,28.17
2023-03-26T08:16:41.146Z,21.73
2023-03-26T08:19:43.168Z,28.77
2023-03-26T08:22:26.289Z,33.03
2023-03-26T08:25:27.681Z,21.70
2023-03-26T08:28:39.107Z,23.63
2023-03-26T08:31:07.997Z,30.58
2023-03-26T08:33:38.279Z,32.10
2023-03-26T08:36:05.895Z,25.98
2023-03-26T08:38:32.416Z,24.47
2023-03-26T08:41:11.268Z,29.45
2023-03-26T08:43:59.215Z,27.88
2023-03-26T08:46:50.450Z,30.80
2023-03-26T08:49:54.389Z,28.15
2023-03-26T08:52:33.023Z,31.50
2023-03-26T08:55:28.328Z,21.45
2023-03-26T08:58:19.271Z,26.08
2023-03-26T09:01:27.720Z,24.17
2023-03-26T09:04:12.745Z,30.73
2023-03-26T09:06:48.359Z,32.73
2023-03-26T09:09:33.941Z,35.22
2023-03-26T09:12:06.553Z,37.28
2023-03-26T09:15:03.847Z,26.42
2023-03-26T09:18:08.057Z,30.98
2023-03-26T09:20:56.659Z,27.40
2023-03-26T09:23:52.544Z,33.00
2023-03-26T09:26:39.973Z,25.42
2023-03-26T09:29:22.938Z,25.75
2023-03-26T09:32:17.648Z,26.35
2023-03-26T09:34:56.792Z,21.70
2023-03-26T09:37:56.443Z,23.15
2023-03-26T09:40:38.671Z,27.70
2023-03-26T09:43:55.643Z,24.13
2023-03-26T09:46:40.772Z,20.48
2023-03-26T09:49:15.574Z,21.83
2023-03-26T09:52:01.510Z,22.52
2023-03-26T09:54:56.010Z,23.02
2023-03-26T09:57:53.537Z,24.00
2023-03-26T10:00:33.381Z,16.20
2023-03-26T10:03:17.467Z,18.83
2023-03-26T10:05:50.068Z,19.27
2023-03-26T10:08:16.628Z,12.68
2023-03-26T10:10:57.591Z,19.88
2023-03-26T10:13:52.139Z,15.70
2023-03-26T10:16:41.893Z,14.40
2023-03-26T10:19:16.766Z,15.95
2023-03-26T10:21:54.023Z,13.57
2023-03-26T10:25:10.927Z,14.68
2023-03-26T10:28:05.733Z,11.90
2023-03-26T10:30:43.584Z,18.20
2023-03-26T10:33:59.020Z,12.98
2023-03-26T10:36:43.424Z,20.83
2023-03-26T10:39:47.708Z,13.18
2023-03-26T10:42:31.518Z,14.32
2023-03-26T10:45:07.700Z,12.57
2023-03-26T10:47:55.292Z,14.55
2023-03-26T10:50:48.809Z,12.07
2023-03-26T10:53:31.132Z,14.02
2023-03-26T10:56:17.016Z,7.72
2023-03-26T10:58:49.482Z,13.67
2023-03-26T11:01:43.035Z,15.43
2023-03-26T11:04:24.421Z,20.23
2023-03-26T11:07:19.081Z,17.10
2023-03-26T11:10:03.333Z,16.50
2023-03-26T11:12:56.123Z,16.30
2023-03-26T11:15:53.374Z,14.45
2023-03-26T11:18:36.282Z,12.95
2023-03-26T11:21:19.090Z,18.05
2023-03-26T11:24:04.530Z,16.88
2023-03-26T11:27:14.902Z,7.77
2023-03-26T11:29:51.845Z,23.00
2023-03-26T11:32:27.303Z,11.30
2023-03-26T11:35:14.231Z,13.00
2023-03-26T11:37:43.704Z,11.00
2023-03-26T11:40:43.638Z,10.23
2023-03-26T11:43:13.432Z,11.73
2023-03-26T11:45:45.004Z,15.50
2023-03-26T11:48:22.601Z,13.10
2023-03-26T11:50:53.909Z,10.25
2023-03-26T11:53:31.986Z,13.07
2023-03-26T11:56:14.964Z,13.05
2023-03-26T11:58:54.828Z,14.27
2023-03-26T12:01:32.624Z,17.48
2023-03-26T12:04:25.117Z,14.32
2023-03-26T12:06:51.697Z,11.17
2023-03-26T12:09:19.915Z,18.73
2023-03-26T12:11:48.689Z,13.88
2023-03-26T12:14:21.834Z,13.77
2023-03-26T12:17:07.469Z,14.68
2023-03-26T12:19:45.408Z,22.17
2023-03-26T12:22:43.439Z,13.20
2023-03-26T12:25:16.763Z,8.68
2023-03-26T12:27:58.824Z,9.50
2023-03-26T12:30:31.437Z,14.02
2023-03-26T12:33:03.920Z,12.00
2023-03-26T12:35:35.330Z,8.73
2023-03-26T12:38:17.073Z,10.32
2023-03-26T12:40:45.094Z,16.73
2023-03-26T12:44:55.666Z,6.93
2023-03-26T12:47:56.147Z,9.63
2023-03-26T12:49:14.482Z,12.70
2023-03-26T12:51:43.911Z,9.50
2023-03-26T12:54:28.786Z,8.57
2023-03-26T12:57:20.492Z,10.98
2023-03-26T13:00:21.337Z,9.43
2023-03-26T13:03:00.128Z,8.98
2023-03-26T13:05:36.430Z,11.52
2023-03-26T13:08:39.560Z,5.55
2023-03-26T13:11:30.523Z,7.85
2023-03-26T13:14:14.876Z,10.50
2023-03-26T13:16:46.610Z,13.30
2023-03-26T13:19:23.682Z,12.07
2023-03-26T13:24:51.240Z,13.57
2023-03-26T13:27:30.450Z,7.40
2023-03-26T13:30:07.564Z,7.25
2023-03-26T13:32:49.633Z,10.57
2023-03-26T13:35:20.353Z,5.93
2023-03-26T13:38:00.414Z,9.45
2023-03-26T13:40:29.810Z,10.20
2023-03-26T13:43:22.217Z,8.45
2023-03-26T13:46:05.384Z,12.98
2023-03-26T13:48:42.727Z,7.75
2023-03-26T13:51:48.405Z,11.20
2023-03-26T13:54:23.980Z,5.97
2023-03-26T13:57:13.917Z,7.03
2023-03-26T13:59:47.609Z,7.55
2023-03-26T14:02:28.050Z,10.30
2023-03-26T14:05:02.074Z,7.70
2023-03-26T14:07:40.620Z,7.90
2023-03-26T14:10:10.701Z,5.03
2023-03-26T14:12:55.819Z,4.72
2023-03-26T14:15:29.421Z,8.57
2023-03-26T14:18:06.119Z,7.55
2023-03-26T14:21:26.608Z,9.23
2023-03-26T14:24:11.858Z,8.50
2023-03-26T14:26:58.633Z,8.35
2023-03-26T14:29:56.722Z,8.13
2023-03-26T14:32:33.439Z,6.45
2023-03-26T14:35:20.371Z,17.40
2023-03-26T14:37:58.767Z,7.15
2023-03-26T14:40:46.789Z,5.15
2023-03-26T14:44:10.981Z,5.47
2023-03-26T14:46:52.331Z,4.82
2023-03-26T14:49:36.870Z,11.93
2023-03-26T14:52:31.534Z,3.17
2023-03-26T14:55:03.702Z,8.45
2023-03-26T14:58:03.907Z,4.78
2023-03-26T15:00:38.962Z,9.07
2023-03-26T15:03:39.448Z,9.93
2023-03-26T15:06:38.247Z,4.28
2023-03-26T15:09:25.874Z,7.97
2023-03-26T15:12:12.309Z,9.73
2023-03-26T15:15:26.263Z,4.78
2023-03-26T15:18:11.810Z,9.13
2023-03-26T15:21:11.407Z,7.47
2023-03-26T15:23:57.933Z,8.68
2023-03-26T15:26:46.529Z,11.02
2023-03-26T15:29:31.973Z,12.98
2023-03-26T15:32:34.252Z,10.67
2023-03-26T15:35:09.838Z,4.75
2023-03-26T15:37:59.594Z,7.55
2023-03-26T15:40:36.504Z,6.45
2023-03-26T15:43:14.813Z,6.30
2023-03-26T15:46:26.560Z,15.93
2023-03-26T15:49:03.693Z,7.82
2023-03-26T15:52:07.923Z,5.00
2023-03-26T15:55:16.077Z,9.15
2023-03-26T15:57:57.027Z,9.45
2023-03-26T16:00:26.472Z,12.97
2023-03-26T16:02:53.963Z,8.88
2023-03-26T16:05:24.212Z,5.35
2023-03-26T16:08:20.483Z,7.80
2023-03-26T16:11:00.377Z,9.23
2023-03-26T16:13:33.527Z,9.43
2023-03-26T16:16:03.349Z,14.07
2023-03-26T16:18:41.101Z,10.38
2023-03-26T16:21:31.855Z,8.25
2023-03-26T16:24:02.177Z,10.73
2023-03-26T16:26:31.490Z,12.47
2023-03-26T16:29:18.485Z,7.97
2023-03-26T16:32:13.814Z,4.78
2023-03-26T16:35:02.002Z,9.63
2023-03-26T16:37:32.016Z,9.38
2023-03-26T16:40:20.904Z,6.93
2023-03-26T16:43:00.313Z,6.68
2023-03-26T16:45:49.520Z,11.02
2023-03-26T16:48:25.306Z,6.72
2023-03-26T16:51:11.601Z,8.38
2023-03-26T16:53:41.650Z,14.07
2023-03-26T16:56:10.885Z,7.05
2023-03-26T16:58:56.292Z,9.20
2023-03-26T17:01:22.926Z,9.57
2023-03-26T17:04:12.945Z,12.00
2023-03-26T17:06:48.249Z,9.03
2023-03-26T17:09:28.419Z,4.20
2023-03-26T17:12:03.086Z,5.65
2023-03-26T17:14:48.948Z,10.40
2023-03-26T17:17:37.434Z,6.65
2023-03-26T17:20:11.708Z,12.50
2023-03-26T17:23:10.885Z,5.40
2023-03-26T17:25:52.506Z,7.57
2023-03-26T17:28:25.080Z,5.47
2023-03-26T17:31:03.277Z,6.10
2023-03-26T17:33:38.763Z,4.53
2023-03-26T17:36:11.444Z,10.65
2023-03-26T17:38:45.474Z,11.43
2023-03-26T17:41:31.833Z,7.20
2023-03-26T17:43:58.379Z,9.35
2023-03-26T17:46:46.524Z,7.00
2023-03-26T17:49:22.190Z,7.15
2023-03-26T17:51:57.936Z,5.10
2023-03-26T17:54:41.340Z,7.32
2023-03-26T17:57:16.664Z,6.97
2023-03-26T17:59:45.091Z,5.10
2023-03-26T18:02:33.082Z,3.05
2023-03-26T18:05:01.924Z,8.10
2023-03-26T18:08:10.215Z,4.68
2023-03-26T18:10:51.579Z,5.57
2023-03-26T18:13:45.300Z,6.70
2023-03-26T18:16:45.694Z,10.55
2023-03-26T18:19:19.407Z,4.30
2023-03-26T18:21:50.314Z,11.20
2023-03-26T18:24:25.177Z,7.05
2023-03-26T18:27:05.132Z,8.70
2023-03-26T18:29:35.834Z,5.68
2023-03-26T18:32:22.209Z,8.52
2023-03-26T18:34:53.727Z,7.22
2023-03-26T18:37:24.186Z,7.72
2023-03-26T18:40:02.430Z,5.80
2023-03-26T18:42:31.721Z,2.78
2023-03-26T18:45:04.672Z,5.88
2023-03-26T18:47:31.974Z,5.32
2023-03-26T18:49:59.985Z,8.63
2023-03-26T18:52:29.366Z,10.27
2023-03-26T18:54:59.000Z,8.20
2023-03-26T18:57:28.422Z,9.48
2023-03-26T19:00:10.022Z,7.72
2023-03-26T19:02:37.853Z,6.43
2023-03-26T19:05:04.936Z,4.93
2023-03-26T19:07:31.696Z,11.68
2023-03-26T19:10:01.332Z,5.28
2023-03-26T19:12:32.493Z,4.30
2023-03-26T19:15:09.044Z,6.47
2023-03-26T19:17:41.343Z,11.67
2023-03-26T19:20:16.486Z,11.65
2023-03-26T19:22:44.696Z,9.40
2023-03-26T19:25:28.072Z,6.28
2023-03-26T19:27:55.005Z,8.23
2023-03-26T19:30:31.759Z,6.47
2023-03-26T19:33:13.875Z,14.60
2023-03-26T19:35:42.215Z,10.35
2023-03-26T19:38:22.690Z,6.90
2023-03-26T19:40:51.974Z,9.07
2023-03-26T19:43:19.478Z,4.80
2023-03-26T19:46:00.399Z,6.70
2023-03-26T19:48:45.507Z,8.77
2023-03-26T19:51:20.255Z,3.58
2023-03-26T19:53:58.210Z,6.30
2023-03-26T19:56:24.756Z,2.87
2023-03-26T19:58:51.335Z,7.03
2023-03-26T20:01:27.206Z,5.13
2023-03-26T20:04:00.969Z,7.45
2023-03-26T20:06:42.557Z,6.47
2023-03-26T20:09:12.612Z,3.97
2023-03-26T20:11:40.368Z,6.25
2023-03-26T20:14:14.526Z,7.10
2023-03-26T20:19:29.536Z,5.57
2023-03-26T20:21:56.421Z,3.87
2023-03-26T20:24:24.726Z,6.90
2023-03-26T20:26:51.141Z,2.05
2023-03-26T20:29:17.810Z,4.50
2023-03-26T20:31:44.428Z,6.35
2023-03-26T20:34:19.870Z,5.47
2023-03-26T20:36:47.253Z,4.93
2023-03-26T20:39:14.221Z,4.70
2023-03-26T20:41:45.602Z,5.45
2023-03-26T20:44:15.334Z,10.00
2023-03-26T20:46:43.353Z,12.73
2023-03-26T20:49:10.829Z,16.23
2023-03-26T20:51:38.438Z,8.32
2023-03-26T20:54:17.561Z,6.28
2023-03-26T20:56:45.561Z,6.03
2023-03-26T20:59:17.683Z,5.13
2023-03-26T21:01:44.550Z,5.18
2023-03-26T21:04:11.610Z,9.00
2023-03-26T21:06:38.064Z,6.20
2023-03-26T21:09:05.025Z,3.45
2023-03-26T21:11:55.685Z,6.23
2023-03-26T21:14:27.586Z,4.38
2023-03-26T21:16:54.350Z,2.08
2023-03-26T21:19:21.227Z,5.95
2023-03-26T21:22:29.345Z,3.53
2023-03-26T21:25:24.253Z,11.67
2023-03-26T21:28:09.340Z,4.30
2023-03-26T21:30:36.158Z,3.08
2023-03-26T21:33:05.191Z,5.05
2023-03-26T21:35:32.241Z,5.65
2023-03-26T21:37:58.983Z,6.67
2023-03-26T21:40:26.041Z,4.57
2023-03-26T21:42:54.200Z,4.70
2023-03-26T21:45:21.981Z,2.40
2023-03-26T21:47:49.002Z,3.03
2023-03-26T21:50:21.744Z,6.33
2023-03-26T21:52:48.921Z,3.55
2023-03-26T21:55:20.188Z,6.53
2023-03-26T21:58:05.454Z,2.97
2023-03-26T22:01:12.186Z,4.72
2023-03-26T22:03:54.127Z,7.20
2023-03-26T22:06:48.970Z,3.70
2023-03-26T22:09:18.524Z,5.38
2023-03-26T22:11:47.329Z,6.40
2023-03-26T22:14:14.161Z,4.60
2023-03-26T22:16:41.625Z,3.47
2023-03-26T22:19:08.604Z,4.63
2023-03-26T22:21:35.972Z,5.03
2023-03-26T22:24:04.690Z,9.20
2023-03-26T22:26:31.273Z,12.00
2023-03-26T22:28:58.259Z,3.93
2023-03-26T22:31:26.419Z,4.93
2023-03-26T22:33:54.573Z,10.48
2023-03-26T22:36:23.513Z,3.85
2023-03-26T22:38:53.189Z,3.05
2023-03-26T22:41:19.831Z,4.13
2023-03-26T22:43:46.407Z,9.10
2023-03-26T22:46:13.698Z,3.75
2023-03-26T22:48:40.633Z,7.43
2023-03-26T22:51:10.217Z,6.45
2023-03-26T22:53:37.171Z,4.40
2023-03-26T22:56:04.490Z,2.80
2023-03-26T22:58:32.722Z,6.95
2023-03-26T23:01:08.225Z,7.28
2023-03-26T23:03:35.811Z,3.75
2023-03-26T23:06:06.240Z,5.70
2023-03-26T23:08:33.099Z,5.80
2023-03-26T23:10:59.634Z,2.25
2023-03-26T23:13:26.575Z,5.18
2023-03-26T23:15:55.143Z,3.70
2023-03-26T23:18:22.866Z,9.13
2023-03-26T23:20:59.418Z,9.23
2023-03-26T23:23:28.763Z,4.03
2023-03-26T23:26:00.467Z,5.43
2023-03-26T23:28:30.173Z,6.30
2023-03-26T23:30:56.866Z,2.97
2023-03-26T23:33:26.299Z,6.85
2023-03-26T23:35:57.788Z,5.88
2023-03-26T23:38:25.527Z,4.93
2023-03-26T23:40:57.408Z,7.82
2023-03-26T23:43:25.040Z,3.53
2023-03-26T23:45:52.157Z,3.55
2023-03-26T23:48:24.519Z,8.48
2023-03-26T23:50:52.749Z,8.00
2023-03-26T23:53:31.923Z,7.80
2023-03-26T23:55:58.772Z,5.23
2023-03-26T23:58:29.998Z,6.10
